Time,TemperatureF,DewpointF,PressureIn,WindDirection,WindDirectionDegrees,WindSpeedMPH,WindSpeedGustMPH,Humidity,HourlyPrecipIn,Conditions,Clouds,dailyrainin,SoftwareType,DateUTC
2013-08-24 00:04:00,59.9,55.0,29.80,NE,42,0.0,-999.0,84,-99.99,,,0.00,weatherlink.com 1.10,2013-08-24 07:04:00,
2013-08-24 00:18:00,60.1,55.0,29.80,NE,42,0.0,-999.0,84,-99.99,,,0.00,weatherlink.com 1.10,2013-08-24 07:18:00,
2013-08-24 00:33:00,60.1,55.0,29.80,NE,42,0.0,-999.0,84,-99.99,,,0.00,weatherlink.com 1.10,2013-08-24 07:33:00,
2013-08-24 00:48:00,59.5,55.0,29.80,NE,42,0.0,-999.0,85,-99.99,,,0.00,weatherlink.com 1.10,2013-08-24 07:48:00,
2013-08-24 01:03:00,59.3,55.0,29.80,NE,42,0.0,-999.0,86,-99.99,,,0.00,weatherlink.com 1.10,2013-08-24 08:03:00,
2013-08-24 01:18:00,59.6,55.0,29.80,NE,42,0.0,-999.0,85,-99.99,,,0.00,weatherlink.com 1.10,2013-08-24 08:18:00,
2013-08-24 01:33:00,59.8,55.0,29.80,NE,42,0.0,-999.0,85,-99.99,,,0.00,weatherlink.com 1.10,2013-08-24 08:33:00,
2013-08-24 01:48:00,59.9,55.0,29.80,NE,42,0.0,-999.0,85,-99.99,,,0.00,weatherlink.com 1.10,2013-08-24 08:48:00,
2013-08-24 02:03:00,59.6,55.0,29.80,NE,42,0.0,-999.0,85,-99.99,,,0.00,weatherlink.com 1.10,2013-08-24 09:03:00,
2013-08-24 02:18:00,59.2,55.0,29.80,NE,42,0.0,-999.0,86,-99.99,,,0.00,weatherlink.com 1.10,2013-08-24 09:18:00,
2013-08-24 02:33:00,58.9,55.0,29.80,NE,42,0.0,-999.0,87,-99.99,,,0.00,weatherlink.com 1.10,2013-08-24 09:33:00,
2013-08-24 02:48:00,59.2,56.0,29.80,NE,42,0.0,-999.0,88,-99.99,,,0.00,weatherlink.com 1.10,2013-08-24 09:48:00,
2013-08-24 03:03:00,59.3,56.0,29.80,NE,42,0.0,-999.0,88,-99.99,,,0.00,weatherlink.com 1.10,2013-08-24 10:03:00,
2013-08-24 03:18:00,59.5,56.0,29.80,NE,42,0.0,-999.0,88,-99.99,,,0.00,weatherlink.com 1.10,2013-08-24 10:18:00,
2013-08-24 03:33:00,59.5,56.0,29.80,NE,42,0.0,-999.0,87,-99.99,,,0.00,weatherlink.com 1.10,2013-08-24 10:33:00,
2013-08-24 03:48:00,59.5,56.0,29.80,NE,42,0.0,-999.0,87,-99.99,,,0.00,weatherlink.com 1.10,2013-08-24 10:48:00,
2013-08-24 04:03:00,59.5,56.0,29.79,NE,42,0.0,-999.0,87,-99.99,,,0.00,weatherlink.com 1.10,2013-08-24 11:03:00,
2013-08-24 04:18:00,59.3,56.0,29.79,NE,42,0.0,-999.0,88,-99.99,,,0.00,weatherlink.com 1.10,2013-08-24 11:18:00,
2013-08-24 04:33:00,59.3,56.0,29.79,NE,42,0.0,-999.0,88,-99.99,,,0.00,weatherlink.com 1.10,2013-08-24 11:33:00,
2013-08-24 04:48:00,59.3,56.0,29.79,NE,42,0.0,-999.0,88,-99.99,,,0.00,weatherlink.com 1.10,2013-08-24 11:48:00,
2013-08-24 05:03:00,59.3,56.0,29.79,NE,42,0.0,-999.0,88,-99.99,,,0.00,weatherlink.com 1.10,2013-08-24 12:03:00,
2013-08-24 05:18:00,59.3,56.0,29.79,NE,42,0.0,-999.0,88,-99.99,,,0.00,weatherlink.com 1.10,2013-08-24 12:18:00,
2013-08-24 05:33:00,59.2,56.0,29.79,NE,42,0.0,-999.0,88,-99.99,,,0.00,weatherlink.com 1.10,2013-08-24 12:33:00,
2013-08-24 05:48:00,59.3,56.0,29.78,NE,42,0.0,-999.0,88,-99.99,,,0.00,weatherlink.com 1.10,2013-08-24 12:48:00,
2013-08-24 06:03:00,59.2,56.0,29.78,NE,42,0.0,-999.0,88,-99.99,,,0.00,weatherlink.com 1.10,2013-08-24 13:03:00,
2013-08-24 06:18:00,58.9,56.0,29.78,NE,42,0.0,-999.0,89,-99.99,,,0.00,weatherlink.com 1.10,2013-08-24 13:18:00,
2013-08-24 06:33:00,58.7,56.0,29.78,NE,42,0.0,-999.0,90,-99.99,,,0.00,weatherlink.com 1.10,2013-08-24 13:33:00,
2013-08-24 06:48:00,58.7,56.0,29.78,NE,42,0.0,-999.0,90,-99.99,,,0.00,weatherlink.com 1.10,2013-08-24 13:48:00,
2013-08-24 07:03:00,58.9,56.0,29.79,NE,42,0.0,-999.0,90,-99.99,,,0.00,weatherlink.com 1.10,2013-08-24 14:03:00,
2013-08-24 07:18:00,59.0,56.0,29.79,NE,42,0.0,-999.0,89,-99.99,,,0.00,weatherlink.com 1.10,2013-08-24 14:18:00,
2013-08-24 07:34:00,59.2,56.0,29.79,NE,42,0.0,-999.0,89,-99.99,,,0.00,weatherlink.com 1.10,2013-08-24 14:34:00,
2013-08-24 07:48:00,59.3,56.0,29.79,NE,42,0.0,-999.0,89,-99.99,,,0.00,weatherlink.com 1.10,2013-08-24 14:48:00,
2013-08-24 08:03:00,59.8,57.0,29.79,NE,42,0.0,-999.0,89,-99.99,,,0.00,weatherlink.com 1.10,2013-08-24 15:03:00,
2013-08-24 08:18:00,60.2,56.0,29.79,NE,42,0.0,-999.0,87,-99.99,,,0.00,weatherlink.com 1.10,2013-08-24 15:18:00,
2013-08-24 08:33:00,60.5,56.0,29.79,NE,42,0.0,-999.0,86,-99.99,,,0.00,weatherlink.com 1.10,2013-08-24 15:33:00,
2013-08-24 08:48:00,61.0,57.0,29.79,NE,42,0.0,-999.0,85,-99.99,,,0.00,weatherlink.com 1.10,2013-08-24 15:48:00,
2013-08-24 09:03:00,61.3,57.0,29.79,NE,42,0.0,-999.0,84,-99.99,,,0.00,weatherlink.com 1.10,2013-08-24 16:03:00,
2013-08-24 09:18:00,61.8,57.0,29.79,NE,42,0.0,-999.0,84,-99.99,,,0.00,weatherlink.com 1.10,2013-08-24 16:18:00,
2013-08-24 09:33:00,62.3,56.0,29.79,East,90,0.0,-999.0,81,-99.99,,,0.00,weatherlink.com 1.10,2013-08-24 16:33:00,
2013-08-24 09:49:00,63.1,57.0,29.79,NNW,340,0.0,-999.0,81,-99.99,,,0.00,weatherlink.com 1.10,2013-08-24 16:49:00,
2013-08-24 10:04:00,63.7,57.0,29.79,NNE,28,1.0,-999.0,80,-99.99,,,0.00,weatherlink.com 1.10,2013-08-24 17:04:00,
2013-08-24 10:19:00,65.2,58.0,29.79,North,5,0.0,-999.0,77,-99.99,,,0.00,weatherlink.com 1.10,2013-08-24 17:19:00,
2013-08-24 10:34:00,65.2,58.0,29.79,West,261,0.0,-999.0,77,-99.99,,,0.00,weatherlink.com 1.10,2013-08-24 17:34:00,
2013-08-24 10:48:00,66.9,59.0,29.79,NNE,24,0.0,-999.0,75,-99.99,,,0.00,weatherlink.com 1.10,2013-08-24 17:48:00,
2013-08-24 11:04:00,67.3,58.0,29.79,NW,308,0.0,-999.0,73,-99.99,,,0.00,weatherlink.com 1.10,2013-08-24 18:04:00,
2013-08-24 11:19:00,66.9,58.0,29.79,WNW,290,0.0,-999.0,72,-99.99,,,0.00,weatherlink.com 1.10,2013-08-24 18:19:00,
2013-08-24 11:34:00,67.6,58.0,29.79,WNW,290,0.0,-999.0,71,-99.99,,,0.00,weatherlink.com 1.10,2013-08-24 18:34:00,
2013-08-24 11:48:00,69.4,58.0,29.79,NW,311,0.0,-999.0,67,-99.99,,,0.00,weatherlink.com 1.10,2013-08-24 18:48:00,
2013-08-24 12:04:00,69.6,59.0,29.78,WNW,291,0.0,-999.0,68,-99.99,,,0.00,weatherlink.com 1.10,2013-08-24 19:04:00,
2013-08-24 12:18:00,70.9,57.0,29.78,West,263,0.0,-999.0,62,-99.99,,,0.00,weatherlink.com 1.10,2013-08-24 19:18:00,
2013-08-24 12:33:00,69.4,58.0,29.78,NE,37,0.0,-999.0,68,-99.99,,,0.00,weatherlink.com 1.10,2013-08-24 19:33:00,
2013-08-24 12:48:00,68.4,58.0,29.78,NE,36,0.0,-999.0,69,-99.99,,,0.00,weatherlink.com 1.10,2013-08-24 19:48:00,
2013-08-24 13:04:00,69.3,57.0,29.78,NE,35,0.0,-999.0,65,-99.99,,,0.00,weatherlink.com 1.10,2013-08-24 20:04:00,
2013-08-24 13:18:00,69.9,56.0,29.78,NE,36,1.0,-999.0,62,-99.99,,,0.00,weatherlink.com 1.10,2013-08-24 20:18:00,
2013-08-24 13:33:00,70.4,57.0,29.78,East,88,0.0,-999.0,62,-99.99,,,0.00,weatherlink.com 1.10,2013-08-24 20:33:00,
2013-08-24 13:48:00,71.1,56.0,29.77,West,266,0.0,-999.0,59,-99.99,,,0.00,weatherlink.com 1.10,2013-08-24 20:48:00,
2013-08-24 14:04:00,70.9,56.0,29.77,NE,38,0.0,-999.0,60,-99.99,,,0.00,weatherlink.com 1.10,2013-08-24 21:04:00,
2013-08-24 14:19:00,71.5,56.0,29.77,East,94,0.0,-999.0,59,-99.99,,,0.00,weatherlink.com 1.10,2013-08-24 21:19:00,
2013-08-24 14:34:00,71.6,55.0,29.77,NNE,28,0.0,-999.0,56,-99.99,,,0.00,weatherlink.com 1.10,2013-08-24 21:34:00,
2013-08-24 14:48:00,72.3,56.0,29.76,NNE,33,1.0,-999.0,57,-99.99,,,0.00,weatherlink.com 1.10,2013-08-24 21:48:00,
2013-08-24 15:04:00,72.7,55.0,29.76,NE,39,0.0,-999.0,55,-99.99,,,0.00,weatherlink.com 1.10,2013-08-24 22:04:00,
2013-08-24 15:18:00,73.2,55.0,29.76,South,183,0.0,-999.0,53,-99.99,,,0.00,weatherlink.com 1.10,2013-08-24 22:18:00,
2013-08-24 15:33:00,73.2,57.0,29.76,WSW,248,0.0,-999.0,58,-99.99,,,0.00,weatherlink.com 1.10,2013-08-24 22:33:00,
2013-08-24 15:49:00,73.2,56.0,29.75,WSW,245,0.0,-999.0,56,-99.99,,,0.00,weatherlink.com 1.10,2013-08-24 22:49:00,
2013-08-24 16:03:00,73.9,55.0,29.75,NE,34,1.0,-999.0,52,-99.99,,,0.00,weatherlink.com 1.10,2013-08-24 23:03:00,
2013-08-24 16:18:00,73.3,55.0,29.75,NNE,13,0.0,-999.0,53,-99.99,,,0.00,weatherlink.com 1.10,2013-08-24 23:18:00,
2013-08-24 16:33:00,73.2,56.0,29.75,East,86,0.0,-999.0,55,-99.99,,,0.00,weatherlink.com 1.10,2013-08-24 23:33:00,
2013-08-24 16:49:00,73.7,55.0,29.74,East,86,0.0,-999.0,52,-99.99,,,0.00,weatherlink.com 1.10,2013-08-24 23:49:00,
2013-08-24 17:03:00,73.9,57.0,29.74,WSW,238,3.0,-999.0,55,-99.99,,,0.00,weatherlink.com 1.10,2013-08-25 00:03:00,
2013-08-24 17:18:00,72.7,56.0,29.74,WNW,303,0.0,-999.0,57,-99.99,,,0.00,weatherlink.com 1.10,2013-08-25 00:18:00,
2013-08-24 17:33:00,72.0,55.0,29.74,WSW,239,0.0,-999.0,55,-99.99,,,0.00,weatherlink.com 1.10,2013-08-25 00:33:00,
2013-08-24 17:48:00,71.6,55.0,29.74,WSW,257,0.0,-999.0,56,-99.99,,,0.00,weatherlink.com 1.10,2013-08-25 00:48:00,
2013-08-24 18:04:00,71.3,55.0,29.74,NW,325,0.0,-999.0,56,-99.99,,,0.00,weatherlink.com 1.10,2013-08-25 01:04:00,
2013-08-24 18:19:00,70.9,55.0,29.74,West,262,0.0,-999.0,57,-99.99,,,0.00,weatherlink.com 1.10,2013-08-25 01:19:00,
2013-08-24 18:34:00,70.3,54.0,29.74,NW,311,0.0,-999.0,57,-99.99,,,0.00,weatherlink.com 1.10,2013-08-25 01:34:00,
2013-08-24 18:48:00,69.8,54.0,29.73,NW,311,4.0,-999.0,58,-99.99,,,0.00,weatherlink.com 1.10,2013-08-25 01:48:00,
2013-08-24 19:03:00,69.3,54.0,29.73,WSW,252,1.0,-999.0,59,-99.99,,,0.00,weatherlink.com 1.10,2013-08-25 02:03:00,
2013-08-24 19:19:00,68.3,54.0,29.73,West,267,0.0,-999.0,60,-99.99,,,0.00,weatherlink.com 1.10,2013-08-25 02:19:00,
2013-08-24 19:34:00,66.9,53.0,29.73,SW,231,0.0,-999.0,62,-99.99,,,0.00,weatherlink.com 1.10,2013-08-25 02:34:00,
2013-08-24 19:49:00,66.4,52.0,29.74,NNW,333,0.0,-999.0,61,-99.99,,,0.00,weatherlink.com 1.10,2013-08-25 02:49:00,
2013-08-24 20:04:00,65.6,53.0,29.74,WSW,240,0.0,-999.0,63,-99.99,,,0.00,weatherlink.com 1.10,2013-08-25 03:04:00,
2013-08-24 20:19:00,65.0,53.0,29.75,WSW,243,1.0,-999.0,66,-99.99,,,0.00,weatherlink.com 1.10,2013-08-25 03:19:00,
2013-08-24 20:33:00,64.2,53.0,29.75,WSW,248,0.0,-999.0,68,-99.99,,,0.00,weatherlink.com 1.10,2013-08-25 03:33:00,
2013-08-24 20:48:00,63.9,53.0,29.75,WSW,251,0.0,-999.0,68,-99.99,,,0.00,weatherlink.com 1.10,2013-08-25 03:48:00,
2013-08-24 21:04:00,63.5,54.0,29.76,West,265,0.0,-999.0,70,-99.99,,,0.00,weatherlink.com 1.10,2013-08-25 04:04:00,
2013-08-24 21:19:00,62.7,54.0,29.76,West,265,0.0,-999.0,72,-99.99,,,0.00,weatherlink.com 1.10,2013-08-25 04:19:00,
2013-08-24 21:33:00,62.4,53.0,29.77,West,265,0.0,-999.0,72,-99.99,,,0.00,weatherlink.com 1.10,2013-08-25 04:33:00,
2013-08-24 21:48:00,62.3,53.0,29.77,West,265,0.0,-999.0,72,-99.99,,,0.00,weatherlink.com 1.10,2013-08-25 04:48:00,
2013-08-24 22:03:00,62.0,53.0,29.77,West,265,0.0,-999.0,72,-99.99,,,0.00,weatherlink.com 1.10,2013-08-25 05:03:00,
2013-08-24 22:19:00,62.4,53.0,29.77,West,265,0.0,-999.0,72,-99.99,,,0.00,weatherlink.com 1.10,2013-08-25 05:19:00,
2013-08-24 22:34:00,62.6,53.0,29.77,NE,42,2.0,-999.0,72,-99.99,,,0.00,weatherlink.com 1.10,2013-08-25 05:34:00,
2013-08-24 22:49:00,63.4,53.0,29.77,NE,34,0.0,-999.0,70,-99.99,,,0.00,weatherlink.com 1.10,2013-08-25 05:49:00,
2013-08-24 23:04:00,63.2,53.0,29.78,NE,34,0.0,-999.0,70,-99.99,,,0.00,weatherlink.com 1.10,2013-08-25 06:04:00,
2013-08-24 23:19:00,63.4,53.0,29.78,NE,34,0.0,-999.0,70,-99.99,,,0.00,weatherlink.com 1.10,2013-08-25 06:19:00,
2013-08-24 23:34:00,62.7,54.0,29.78,NE,34,0.0,-999.0,72,-99.99,,,0.00,weatherlink.com 1.10,2013-08-25 06:34:00,
2013-08-24 23:49:00,62.0,53.0,29.78,NE,34,0.0,-999.0,73,-99.99,,,0.00,weatherlink.com 1.10,2013-08-25 06:49:00,